Oceana Nas /Apollo Soucek Field/ Station
KNTU : now visible

Airfield :











YOU CAN JOIN US ON...

 
LOGIN :

Register | Disclaimer

   EN    FR    IT 

 









Legend :    VFR   Marginal VFR   IFR   Intensive IFR   Very Intensive IFR
Visi :
Ceiling :
>= 8 km
>= 3000ft
5 to 8 km
1000 to 3000 ft
1500m to 5 km
500 to 1000 ft
800 to 1500m
200 to 500 ft
< 800m
< 200 ft
Symbols :   Thunderstorms  Fog  Heavy snow  Heavy precipitations  Wind > 20 kt






- Airport Elevation : 23 ft


KNTU - Oceana Nas /Apollo Soucek Field/ Station

CURRENT METAR :
  • 270456Z 20016G26KT 10SM OVC060 16/13 A2955 RMK AO2 PK WND 20026/0447 RAE25 SLP010 P0001 T01560133 401610100

EXPIRED METARs :
  • 270356Z 20013G19KT 10SM -RA SCT070 OVC095 16/14 A2958 RMK AO2 RAB42 SLP017 P0000 T01610144
  • 270325Z 19010G16KT 10SM BKN090 BKN110 16/14 A2958 RMK AO2 T01560144
  • 270256Z 20009KT 4SM BR BKN002 OVC016 14/14 A2960 RMK AO2 SLP026 T01390139 56031

TAF AMD TAF KNTU
Valid from the 27 at 04:00 until the 27 at 23:00 UTC


2704/2723 18018G25KT 8000 -SHRA BR SCT025 SCT070 BKN100 641409 540009 540909 QNH2954INS
TEMPO 2704/2707 2000 SHRA BR BKN006 OVC025
FM270900 27020G28KT 9999 FEW060 SCT200 641409 531809 532709 QNH2960INS
FM271200 28018G25KT 9999 SKC 600000 531809 532709 QNH2980INS T10/2623Z T04/2715Z AMD 0434Z FN00085



MET'MAP, your aeronautical weather chart ! - Copyright ORBIFLY December 2007 - Disclaimer

ORBIFLY MET'MAP TEAM :

Programming & Development : Alexandra Zaïnal
Concept & original design : Baudouin d'Aumeries
Assistance for programming : Marc-Olivier Méhu
Technical & hardware support : Manuel Goepfert

Contact : metmap@orbifly.com




SOURCES & CREDITS :

   NOAA       Earth
Advisory